Scroll down
FLIGHT INFORMATION
Southern Air

SOO509

At Arrival Gate

KABQ
 KPHX
DATE: 2021-05-09
GATE: G23
GATE DEPARTURE: 17:08
TAKEOFF: 17:24
DATE: 2021-05-09
GATE:  -
LANDING: 18:32
GATE ARRIVAL: 18:42
FLIGHT DATA
Crew: 
Speed: 
440 kts
Altitude: 
32,008 ft
Stage Length: 
284.9 nm
Block Time: 
1.5 hrs
Flight Time: 
1.1 hrs
Fuel Used: 
7,246 lb
Cleared Route: KABQ ZUN KPHX
TRACK DATA
50,000 ft 1,000 kts
AIRCRAFT INFO AND CUMULATIVE STATS
Aircraft Type: 
B738BCF
Registration: 
SELCAL: 
MSN/LN: 
32882 / 1163
Operator: 
Total Flights: 
4
Total Block Time: 
6 hrs
Total Flight Time: 
4.9 hrs
Total Fuel Time: 
30,658 lb
DATALINK LOG | Newest first | Current as of: 2021-06-22 13:15:38
LABEL SEQUENCE CONTENT Dn/Up
QD513918:42 6.3▼ Dn
QC413218:32▼ Dn
2U1019KPHX 091751Z 24003KT 10SM FEW100 31/00 A2985 RMK AO2 SLP089 FU FEW100 DSNT N T03060000 10311 20211 58002▲ Up
2S1912KPHX▼ Dn
QB263417:24▼ Dn
QA101817:08 13.6▼ Dn
A35009CLEARED TO KPHX VIA LARGO3 ZUN EAGUL6. SQUAWK 2325.▲ Up
Q04858[LINK ACK]▲ Up
Q04858[LINK TEST]▼ Dn


AIRCRAFT HISTORY
FLIGHT DATE FLIGHT NO. ORIGIN DESTINATION CLEARED ROUTE BLOCK TIME FLIGHT TIME FUEL USED PILOT
2021-06-05SOO605KPHX KLAX KPHX MESSI ESTWD KLAX1.1 hrs0.9 hrs6,445 lbKevin Hall
2021-05-09SOO509KABQ KPHX KABQ ZUN KPHX1.5 hrs1.1 hrs7,246 lbCharles Harris
2021-03-29SOO329KRNO KABQ KRNO PVINE HIWAA PESKE MVA ILC TBC GUP KABQ1.9 hrs1.6 hrs10,350 lbKevin Hall
2020-08-09SOO213KPDX KRNO KPDX PAWLI BAARB FMG KRNO1.5 hrs1.2 hrs6,617 lbCharles Harris